Weather at Flying Cloud Airport

Public forecast

Using degrees Fahrenheit for public forecast. Weather courtesy of forecast.io.

Current aviation weather report (METAR) for Flying Cloud Airport

Retrieved 2020/10/01 11:53 UTC (29 minutes ago):

KFCM 011153Z 34011G20KT 10SM OVC019 09/06 A3005 RMK AO2 RAB01E21 SLP180 P0000 60000 70002 T00890056 10094 20089 53025

Aviation forecast (TAF) for Flying Cloud Airport

Forecast is more than 12 hours old.

Retrieved 2018/02/05 00:21 UTC (3 years ago):

TAF KFCM 052320Z 0600/0624 30007KT P6SM FEW200 FM061000 VRB03KT P6SM FEW250 FM061800 22006KT P6SM SCT100 BKN250 AMD NOT SKED